メインページ
METAR-TAF:

METAR-TAF

空港 :

ウィーン, オーストリア

ウィーン国際空港

緯度: 48-07N, 経度: 016-34E, 海抜: 183m

現時点の気象観測

当レポートは39分前の05:20(UTC)に作成
西/北西の風 12kt
気温 16°C
湿度 82%
気圧 1018 hPa
視程10km以上
高度5000ftの雲はほとんどない
高度7000ftの雲は散在している
高度9000ftの千切れ雲あり
弱いにわか雨

METAR: LOWW 200520Z 29012KT 9999 -SHRA FEW050 SCT070 BKN090 16/13 Q1018 NOSIG

時間: 07:59 (05:59 UTC)

予報

当レポートは44分前の05:15(UTC)に作成
予報は20日の 06時(UTC)から 21日の 12時(UTC)まで有効
西/北西の風 12kt
視程10km以上
高度1500ftの雲はほとんどない
高度8000ftの千切れ雲あり
20日の 06時(UTC)から 20日の 08時(UTC)まで徐々に
北西の風 15kt、最大25ktの突風を伴う
高度3000ftの雲は散在している
高度14000ftの千切れ雲あり
20日の 10時(UTC)から 20日の 15時(UTC)まで一時的に
高度3000ftの雲はほとんどない, 塔状積雲.
高度4000ftの千切れ雲あり
弱いにわか雨
20日の 16時(UTC)から 20日の 18時(UTC)まで徐々に
西/北西の風 7kt
視程10km以上
1,500メートル以下は雲なし、積乱雲なし
21日の 06時(UTC)から 21日の 08時(UTC)まで徐々に
北西の風 13kt
視程10km以上
高度4000ftの雲はほとんどない
高度7000ftの雲は散在している

TAF: LOWW 200515Z 2006/2112 29012KT 9999 FEW015 BKN080 TX22/2014Z TN13/2104Z BECMG 2006/2008 32015G25KT SCT030 BKN140 TEMPO 2010/2015 -SHRA FEW030TCU BKN040 BECMG 2016/2018 30007KT CAVOK BECMG 2106/2108 32013KT 9999 FEW040 SCT070

4,000以上の空港の気象観測と天気予報(METAR報とTAF報)

利用可能な観測所は地図上に黄色い丸と赤い丸で示す。

丸の上にカーソルを重ねると観測所名を参照できる。

次にクリックすると気象観測と天気予報を参照できる。

マップの切り替え:黒色「×」印の緑ボタンをクリックして拡大、「-」印の緑ボタンをクリックして縮小、緑色の三角印をクリックして隣りの地図に切り替え


METAR-TAF: